KFXY/FXY METAR and TAF weather

Enter ICAO airport designator
Station Type Date Time Source
KFXY METAR 2022/12/04 03:55 UTC NOAA

KFXY 040355Z AUTO 20006KT 10SM CLR M07/M12 A3025 RMK AO2


Station Type Date Time Source
KFXY Decoded METAR 2022/12/04 03:55 UTC NOAA

Station name not available
Dec 03, 2022 - 10:55 PM EST / 2022.12.04 0355 UTC
Wind: from the SSW (200 degrees) at 7 MPH (6 KT):0
Visibility: 10 mile(s):0
Sky conditions: clear
Temperature: 19 F (-7 C)
Windchill: 10 F (-12 C):1
Dew Point: 10 F (-12 C)
Relative Humidity: 67%
Pressure (altimeter): 30.25 in. Hg (1024 hPa)
ob: KFXY 040355Z AUTO 20006KT 10SM CLR M07/M12 A3025 RMK AO2
cycle: 4

Station Type Date Time Source
KFXY TAF UTC NOAA

Error!

Example: see airport list